Terminal Aerodrome Forecast
Issued by NWS Wilmington, OH

Current Version | Previous Version | Text Only | Print | Product List | Glossary On
Versions: 1 2 3 4 5 6 7 8 9 10 11 12 13 14 15 16 17 18 19 20 21 22 23 24 25
398 FTUS41 KILN 041720 TAFDAY TAF KDAY 041720Z 0418/0518 23013G22KT 5SM -SHRA VCTS BKN015 OVC040CB FM042100 30014G20KT P6SM VCSH BKN010 OVC020 FM050100 31011KT P6SM VCSH OVC010 FM050500 32010KT P6SM VCSH OVC006 FM051300 36011KT P6SM BKN025=

USA.gov is the U.S. government's official web portal to all federal, state and local government web resources and services.